Time;durP1;ratioP1;P1;durP2;ratioP2;P2;SDS_P1;SDS_P2;PMS_P1;PMS_P2;Temp;Humidity;BMP_temperature;BMP_pressure;BME280_temperature;BME280_humidity;BME280_pressure;Samples;Min_cycle;Max_cycle;Signal;HPM_P1;HPM_P2
2021/03/15 00:00:09;;;;;;;3.88;3.03;;;;;;;;;;4989018;28;20504;-63
2021/03/15 00:02:37;;;;;;;4.00;2.90;;;;;;;;;;4988189;28;20205;-64
2021/03/15 00:05:05;;;;;;;4.97;3.05;;;;;;;;;;4988691;28;20046;-65
2021/03/15 00:07:32;;;;;;;4.35;2.80;;;;;;;;;;4988234;28;20060;-64
2021/03/15 00:09:59;;;;;;;3.70;2.67;;;;;;;;;;4988502;28;20105;-65
2021/03/15 00:12:27;;;;;;;6.90;3.00;;;;;;;;;;4975457;28;20534;-65
2021/03/15 00:14:55;;;;;;;5.07;3.22;;;;;;;;;;4988886;28;20133;-68
2021/03/15 00:17:22;;;;;;;5.35;3.05;;;;;;;;;;4987914;28;20142;-65
2021/03/15 00:19:50;;;;;;;5.45;3.15;;;;;;;;;;4982673;28;20046;-65
2021/03/15 00:22:17;;;;;;;4.05;2.90;;;;;;;;;;4980724;28;20560;-64
2021/03/15 00:24:45;;;;;;;5.63;3.33;;;;;;;;;;4986734;28;20081;-65
2021/03/15 00:27:12;;;;;;;6.30;3.35;;;;;;;;;;4979687;28;20096;-65
2021/03/15 00:29:39;;;;;;;4.60;3.03;;;;;;;;;;4987544;28;20062;-64
2021/03/15 00:32:07;;;;;;;5.40;3.00;;;;;;;;;;4988767;28;20046;-65
2021/03/15 00:34:35;;;;;;;6.47;3.40;;;;;;;;;;4988261;28;20035;-65
2021/03/15 00:37:03;;;;;;;5.20;2.97;;;;;;;;;;4988020;28;20050;-64
2021/03/15 00:39:30;;;;;;;3.83;3.00;;;;;;;;;;4976598;28;20078;-64
2021/03/15 00:41:57;;;;;;;4.32;2.83;;;;;;;;;;4977865;28;20105;-65
2021/03/15 00:44:25;;;;;;;4.53;3.15;;;;;;;;;;4981152;28;20089;-64
2021/03/15 00:46:52;;;;;;;4.05;2.85;;;;;;;;;;4980709;28;20193;-65
2021/03/15 00:49:20;;;;;;;4.43;3.03;;;;;;;;;;4974617;28;20070;-65
2021/03/15 00:51:47;;;;;;;6.38;3.13;;;;;;;;;;4972742;28;20129;-65
2021/03/15 00:54:15;;;;;;;5.72;2.90;;;;;;;;;;4987154;28;20595;-65
2021/03/15 00:56:42;;;;;;;4.80;2.78;;;;;;;;;;4979935;28;20051;-65
2021/03/15 00:59:09;;;;;;;6.97;3.40;;;;;;;;;;4979741;28;20129;-64
2021/03/15 01:01:37;;;;;;;6.60;3.80;;;;;;;;;;4982738;28;20050;-64
2021/03/15 01:04:05;;;;;;;4.93;3.63;;;;;;;;;;4986994;28;20552;-64
2021/03/15 01:06:42;;;;;;;4.40;3.40;;;;;;;;;;4975981;28;20537;-65
2021/03/15 01:09:09;;;;;;;5.10;3.38;;;;;;;;;;4982703;28;20482;-64
2021/03/15 01:11:37;;;;;;;4.60;3.10;;;;;;;;;;4973805;28;20169;-65
2021/03/15 01:14:05;;;;;;;5.90;3.97;;;;;;;;;;4987604;28;20133;-65
2021/03/15 01:16:32;;;;;;;5.10;3.40;;;;;;;;;;4988721;28;20739;-64
2021/03/15 01:19:00;;;;;;;7.10;3.40;;;;;;;;;;4987178;28;20557;-65
2021/03/15 01:21:27;;;;;;;6.47;3.92;;;;;;;;;;4986065;28;20051;-64
2021/03/15 01:23:56;;;;;;;4.60;3.30;;;;;;;;;;4980531;28;20145;-64
2021/03/15 01:26:23;;;;;;;9.07;3.65;;;;;;;;;;4987236;28;20066;-65
2021/03/15 01:28:50;;;;;;;6.57;3.58;;;;;;;;;;4993403;28;20128;-65
2021/03/15 01:31:17;;;;;;;6.88;4.13;;;;;;;;;;4988084;28;20394;-65
2021/03/15 01:33:45;;;;;;;5.32;3.78;;;;;;;;;;4984301;28;20046;-65
2021/03/15 01:36:12;;;;;;;6.20;4.00;;;;;;;;;;4987736;28;20066;-65
2021/03/15 01:38:39;;;;;;;5.68;3.85;;;;;;;;;;4982089;28;20054;-65
2021/03/15 01:41:08;;;;;;;5.88;4.20;;;;;;;;;;4977121;28;20058;-64
2021/03/15 01:43:36;;;;;;;7.07;4.18;;;;;;;;;;4984472;28;20529;-65
2021/03/15 01:46:03;;;;;;;7.18;4.05;;;;;;;;;;4979802;28;20481;-64
2021/03/15 01:48:31;;;;;;;7.97;4.45;;;;;;;;;;4985117;28;20046;-64
2021/03/15 01:50:59;;;;;;;8.48;4.40;;;;;;;;;;4982623;28;20069;-64
2021/03/15 01:53:26;;;;;;;7.28;4.18;;;;;;;;;;4977791;28;20487;-65
2021/03/15 01:55:54;;;;;;;7.72;4.38;;;;;;;;;;4989344;28;20775;-64
2021/03/15 01:58:22;;;;;;;6.20;4.40;;;;;;;;;;4990776;28;20077;-64
2021/03/15 02:00:50;;;;;;;6.45;4.05;;;;;;;;;;4986136;28;20090;-64
2021/03/15 02:03:18;;;;;;;9.00;5.15;;;;;;;;;;4982187;28;20074;-64
2021/03/15 02:05:45;;;;;;;6.88;3.95;;;;;;;;;;4992776;28;20463;-64
2021/03/15 02:08:13;;;;;;;7.20;4.22;;;;;;;;;;4995756;28;20058;-64
2021/03/15 02:10:40;;;;;;;11.48;4.32;;;;;;;;;;4986560;28;20520;-64
2021/03/15 02:13:29;;;;;;;7.68;4.43;;;;;;;;;;4991013;28;20057;-64
2021/03/15 02:16:00;;;;;;;8.73;3.72;;;;;;;;;;4990947;28;20047;-64
2021/03/15 02:18:32;;;;;;;8.18;3.85;;;;;;;;;;4988778;28;20133;-64
2021/03/15 02:21:11;;;;;;;6.00;4.05;;;;;;;;;;4991942;28;20402;-64
2021/03/15 02:23:41;;;;;;;6.95;3.97;;;;;;;;;;4995620;28;20129;-64
2021/03/15 02:26:34;;;;;;;5.85;3.70;;;;;;;;;;4989061;28;20097;-64
2021/03/15 02:29:22;;;;;;;7.95;4.30;;;;;;;;;;4993257;28;20350;-65
2021/03/15 02:32:14;;;;;;;7.10;3.97;;;;;;;;;;4983098;28;20125;-64
2021/03/15 02:35:06;;;;;;;6.45;4.22;;;;;;;;;;4989554;28;20076;-64
2021/03/15 02:37:53;;;;;;;6.90;4.22;;;;;;;;;;4994884;28;20140;-64
2021/03/15 02:40:23;;;;;;;6.70;3.63;;;;;;;;;;4974561;28;20133;-64
2021/03/15 02:42:53;;;;;;;7.28;4.28;;;;;;;;;;4976842;28;20433;-64
2021/03/15 02:45:21;;;;;;;7.45;4.15;;;;;;;;;;4990171;28;20046;-64
2021/03/15 02:47:50;;;;;;;7.65;4.03;;;;;;;;;;4989325;28;20409;-64
2021/03/15 02:50:17;;;;;;;7.55;4.32;;;;;;;;;;4990415;28;20047;-64
2021/03/15 02:52:46;;;;;;;6.45;4.30;;;;;;;;;;4987006;28;20110;-64
2021/03/15 02:55:15;;;;;;;10.60;4.43;;;;;;;;;;4990626;28;20137;-64
2021/03/15 02:57:44;;;;;;;6.05;4.22;;;;;;;;;;4989837;28;20052;-64
2021/03/15 03:00:12;;;;;;;6.10;4.10;;;;;;;;;;4992061;28;20052;-65
2021/03/15 03:02:42;;;;;;;7.35;4.22;;;;;;;;;;4990793;28;20060;-64
2021/03/15 03:05:10;;;;;;;9.18;4.28;;;;;;;;;;4990526;28;20134;-64
2021/03/15 03:07:38;;;;;;;7.70;4.03;;;;;;;;;;4989823;28;20145;-65
2021/03/15 03:10:07;;;;;;;7.55;4.05;;;;;;;;;;4990719;28;20042;-64
2021/03/15 03:12:35;;;;;;;7.53;4.00;;;;;;;;;;4990455;28;20440;-65
2021/03/15 03:15:05;;;;;;;5.03;3.75;;;;;;;;;;4990542;28;20161;-65
2021/03/15 03:17:35;;;;;;;6.32;3.92;;;;;;;;;;4989242;28;20554;-65
2021/03/15 03:20:04;;;;;;;7.22;3.90;;;;;;;;;;4982560;28;20109;-64
2021/03/15 03:22:32;;;;;;;5.00;3.65;;;;;;;;;;4989714;28;20146;-64
2021/03/15 03:25:00;;;;;;;7.18;3.83;;;;;;;;;;4989368;28;20137;-64
2021/03/15 03:27:27;;;;;;;6.22;4.00;;;;;;;;;;4988891;28;20126;-64
2021/03/15 03:29:56;;;;;;;6.47;3.40;;;;;;;;;;4990155;28;20458;-64
2021/03/15 03:32:24;;;;;;;6.80;3.72;;;;;;;;;;4989902;28;20410;-64
2021/03/15 03:34:51;;;;;;;7.00;3.25;;;;;;;;;;4988778;28;20050;-64
2021/03/15 03:37:18;;;;;;;5.88;3.65;;;;;;;;;;4987995;28;20133;-64
2021/03/15 03:39:46;;;;;;;5.55;3.45;;;;;;;;;;4989892;28;20084;-64
2021/03/15 03:42:13;;;;;;;7.22;3.42;;;;;;;;;;4985101;28;20158;-64
2021/03/15 03:44:40;;;;;;;5.13;3.25;;;;;;;;;;4988922;28;20129;-64
2021/03/15 03:47:08;;;;;;;6.85;3.40;;;;;;;;;;4989681;28;20046;-64
2021/03/15 03:49:36;;;;;;;7.60;3.65;;;;;;;;;;4995050;28;20409;-65
2021/03/15 03:52:05;;;;;;;5.93;3.42;;;;;;;;;;4989089;28;20145;-65
2021/03/15 03:54:35;;;;;;;5.25;3.15;;;;;;;;;;4989764;28;20046;-65
2021/03/15 03:57:05;;;;;;;7.90;3.70;;;;;;;;;;4988375;28;20068;-65
2021/03/15 03:59:35;;;;;;;6.10;3.30;;;;;;;;;;4989438;28;20129;-65
2021/03/15 04:02:03;;;;;;;5.00;3.00;;;;;;;;;;4987075;28;20129;-65
2021/03/15 04:04:34;;;;;;;5.28;3.60;;;;;;;;;;4988135;28;20417;-65
2021/03/15 04:07:02;;;;;;;10.80;3.95;;;;;;;;;;4978092;28;20047;-66
2021/03/15 04:09:32;;;;;;;6.68;3.47;;;;;;;;;;4989540;28;20050;-65
2021/03/15 04:12:01;;;;;;;5.53;3.33;;;;;;;;;;4990346;28;20054;-65
2021/03/15 04:14:30;;;;;;;5.63;3.42;;;;;;;;;;4990116;28;20093;-65
2021/03/15 04:17:00;;;;;;;7.60;3.72;;;;;;;;;;4989053;28;20125;-65
2021/03/15 04:19:30;;;;;;;5.70;3.72;;;;;;;;;;4988394;28;20050;-65
2021/03/15 04:22:02;;;;;;;9.23;3.53;;;;;;;;;;4988360;28;20104;-65
2021/03/15 04:24:30;;;;;;;8.35;3.28;;;;;;;;;;4989784;28;20454;-65
2021/03/15 04:26:57;;;;;;;7.70;4.05;;;;;;;;;;4988450;28;20052;-65
2021/03/15 04:29:26;;;;;;;9.75;3.55;;;;;;;;;;4988915;28;20165;-65
2021/03/15 04:31:54;;;;;;;8.63;3.67;;;;;;;;;;4987426;28;20343;-65
2021/03/15 04:34:22;;;;;;;8.18;3.53;;;;;;;;;;4985118;28;20386;-65
2021/03/15 04:36:49;;;;;;;5.72;3.50;;;;;;;;;;4989212;28;20383;-65
2021/03/15 04:39:24;;;;;;;;;;;;;;;;;;4987908;28;20050;-65
2021/03/15 04:41:52;;;;;;;7.05;3.45;;;;;;;;;;4989105;28;20024;-65
2021/03/15 04:44:20;;;;;;;6.97;4.00;;;;;;;;;;4988217;28;20438;-65
2021/03/15 04:46:47;;;;;;;5.78;3.17;;;;;;;;;;4989314;28;20096;-65
2021/03/15 04:49:14;;;;;;;7.82;3.90;;;;;;;;;;4987238;28;20056;-65
2021/03/15 04:51:42;;;;;;;5.22;3.50;;;;;;;;;;4973174;28;20145;-65
2021/03/15 04:54:10;;;;;;;5.72;3.67;;;;;;;;;;4984372;28;20065;-65
2021/03/15 04:56:38;;;;;;;9.32;3.75;;;;;;;;;;4995176;28;20161;-65
2021/03/15 04:59:07;;;;;;;5.15;3.30;;;;;;;;;;4990608;28;20057;-65
2021/03/15 05:01:36;;;;;;;7.70;4.07;;;;;;;;;;4988790;28;20562;-65
2021/03/15 05:04:06;;;;;;;7.25;3.58;;;;;;;;;;4988794;28;20056;-65
2021/03/15 05:06:34;;;;;;;6.88;3.75;;;;;;;;;;4988493;28;20057;-65
2021/03/15 05:09:01;;;;;;;9.07;3.80;;;;;;;;;;4987505;28;20057;-65
2021/03/15 05:11:31;;;;;;;6.95;3.35;;;;;;;;;;4988891;28;20086;-65
2021/03/15 05:13:59;;;;;;;6.53;3.50;;;;;;;;;;4985044;28;20129;-65
2021/03/15 05:16:28;;;;;;;5.18;3.65;;;;;;;;;;4993535;28;20046;-65
2021/03/15 05:18:55;;;;;;;5.07;3.35;;;;;;;;;;4987973;28;20520;-65
2021/03/15 05:21:23;;;;;;;4.70;3.17;;;;;;;;;;4992783;28;20070;-65
2021/03/15 05:23:51;;;;;;;7.03;3.65;;;;;;;;;;4991734;28;20600;-65
2021/03/15 05:26:19;;;;;;;6.93;3.55;;;;;;;;;;4992698;28;20094;-65
2021/03/15 05:28:47;;;;;;;7.80;3.60;;;;;;;;;;4991511;28;20070;-65
2021/03/15 05:31:19;;;;;;;6.32;3.53;;;;;;;;;;4992516;28;20461;-65
2021/03/15 05:33:48;;;;;;;5.88;3.78;;;;;;;;;;4992093;28;20542;-65
2021/03/15 05:36:16;;;;;;;4.78;3.50;;;;;;;;;;4992767;28;20042;-65
2021/03/15 05:38:44;;;;;;;9.35;3.35;;;;;;;;;;4990586;28;20149;-65
2021/03/15 05:41:13;;;;;;;7.75;3.40;;;;;;;;;;4992362;28;20074;-65
2021/03/15 05:43:59;;;;;;;7.47;3.40;;;;;;;;;;4981965;28;20094;-65
2021/03/15 05:46:44;;;;;;;6.93;3.72;;;;;;;;;;4988985;28;20081;-65
2021/03/15 05:49:21;;;;;;;6.55;3.05;;;;;;;;;;4990281;28;20140;-65
2021/03/15 05:52:00;;;;;;;8.35;3.53;;;;;;;;;;4991541;28;20125;-65
2021/03/15 05:54:49;;;;;;;7.13;3.50;;;;;;;;;;4992290;28;20517;-65
2021/03/15 05:57:37;;;;;;;7.13;3.78;;;;;;;;;;4992360;28;20042;-65
2021/03/15 06:00:06;;;;;;;6.47;3.60;;;;;;;;;;4948382;28;20081;-65
2021/03/15 06:02:46;;;;;;;7.00;3.00;;;;;;;;;;4991072;28;20057;-65
2021/03/15 06:05:21;;;;;;;5.13;3.58;;;;;;;;;;4985786;28;20129;-65
2021/03/15 06:07:49;;;;;;;8.07;3.40;;;;;;;;;;4989636;28;20585;-65
2021/03/15 06:10:37;;;;;;;5.20;3.10;;;;;;;;;;4978845;28;20385;-65
2021/03/15 06:13:06;;;;;;;8.70;3.28;;;;;;;;;;4985880;28;20554;-66
2021/03/15 06:15:36;;;;;;;5.25;3.10;;;;;;;;;;4989590;28;20042;-65
2021/03/15 06:18:04;;;;;;;6.72;2.65;;;;;;;;;;4989130;28;20125;-65
2021/03/15 06:20:33;;;;;;;7.35;3.13;;;;;;;;;;4984806;28;20669;-66
2021/03/15 06:23:01;;;;;;;5.28;2.70;;;;;;;;;;4998944;28;20097;-65
2021/03/15 06:25:29;;;;;;;4.28;3.03;;;;;;;;;;4987538;28;20054;-65
2021/03/15 06:27:57;;;;;;;7.32;3.22;;;;;;;;;;4979958;28;20138;-66
2021/03/15 06:30:25;;;;;;;6.72;3.13;;;;;;;;;;4990714;28;20124;-64
2021/03/15 06:32:53;;;;;;;8.05;3.30;;;;;;;;;;4989477;28;20056;-65
2021/03/15 06:35:21;;;;;;;6.95;3.55;;;;;;;;;;4985837;28;20065;-65
2021/03/15 06:37:49;;;;;;;8.38;3.25;;;;;;;;;;4989516;28;20082;-64
2021/03/15 06:40:18;;;;;;;6.30;3.22;;;;;;;;;;4991773;28;20086;-64
2021/03/15 06:42:46;;;;;;;5.57;2.88;;;;;;;;;;4986273;28;20066;-64
2021/03/15 06:45:14;;;;;;;5.30;2.97;;;;;;;;;;4990672;28;20050;-64
2021/03/15 06:47:42;;;;;;;7.68;3.28;;;;;;;;;;4974242;28;20145;-65
2021/03/15 06:50:10;;;;;;;7.85;2.83;;;;;;;;;;4987272;28;20057;-65
2021/03/15 06:52:55;;;;;;;4.93;3.10;;;;;;;;;;4983777;28;20058;-64
2021/03/15 06:55:23;;;;;;;7.43;2.47;;;;;;;;;;4977808;28;20104;-65
2021/03/15 06:57:50;;;;;;;5.85;2.28;;;;;;;;;;4989953;28;20433;-64
2021/03/15 07:00:19;;;;;;;4.72;2.28;;;;;;;;;;4991741;28;20046;-65
2021/03/15 07:02:55;;;;;;;7.10;2.92;;;;;;;;;;4989138;28;20085;-65
2021/03/15 07:05:23;;;;;;;4.72;2.58;;;;;;;;;;4990391;28;20056;-65
2021/03/15 07:07:51;;;;;;;4.72;2.42;;;;;;;;;;4989188;28;20137;-65
2021/03/15 07:10:20;;;;;;;5.65;3.20;;;;;;;;;;4981807;28;20058;-65
2021/03/15 07:12:48;;;;;;;4.32;2.47;;;;;;;;;;4985269;28;20047;-65
2021/03/15 07:15:15;;;;;;;4.00;2.30;;;;;;;;;;4989582;28;20157;-64
2021/03/15 07:17:43;;;;;;;6.85;2.83;;;;;;;;;;4987601;28;20395;-65
2021/03/15 07:20:11;;;;;;;5.68;2.65;;;;;;;;;;4988821;28;20046;-65
2021/03/15 07:22:45;;;;;;;6.90;2.63;;;;;;;;;;4986513;28;20157;-65
2021/03/15 07:25:13;;;;;;;3.92;2.60;;;;;;;;;;4976230;28;20081;-65
2021/03/15 07:27:42;;;;;;;6.60;2.53;;;;;;;;;;4989444;28;20367;-65
2021/03/15 07:30:29;;;;;;;4.40;2.72;;;;;;;;;;4991165;28;20054;-65
2021/03/15 07:32:59;;;;;;;5.20;2.70;;;;;;;;;;4996622;28;20076;-65
2021/03/15 07:35:27;;;;;;;4.13;2.03;;;;;;;;;;4987318;28;20050;-65
2021/03/15 07:37:55;;;;;;;4.30;2.08;;;;;;;;;;4983839;28;20085;-66
2021/03/15 07:40:34;;;;;;;4.68;2.33;;;;;;;;;;4987661;28;20054;-66
2021/03/15 07:43:04;;;;;;;4.35;2.20;;;;;;;;;;4984000;28;20142;-66
2021/03/15 07:45:32;;;;;;;4.78;2.20;;;;;;;;;;4989616;28;20100;-66
2021/03/15 07:48:07;;;;;;;6.30;2.40;;;;;;;;;;4989144;28;20057;-66
2021/03/15 07:50:35;;;;;;;5.78;2.15;;;;;;;;;;4989033;28;20057;-66
2021/03/15 07:53:03;;;;;;;2.38;1.73;;;;;;;;;;4989665;28;20046;-66
2021/03/15 07:55:33;;;;;;;5.68;2.38;;;;;;;;;;4988849;28;20101;-66
2021/03/15 07:58:01;;;;;;;3.03;1.67;;;;;;;;;;4973740;28;20495;-66
2021/03/15 08:00:29;;;;;;;4.20;1.88;;;;;;;;;;4984273;28;20079;-66
2021/03/15 08:02:58;;;;;;;2.42;1.33;;;;;;;;;;4990005;28;20050;-65
2021/03/15 08:05:41;;;;;;;5.05;1.73;;;;;;;;;;4989378;28;20073;-66
2021/03/15 08:08:09;;;;;;;7.68;1.90;;;;;;;;;;4982031;28;20075;-66
2021/03/15 08:10:36;;;;;;;5.35;2.45;;;;;;;;;;4988578;28;20133;-66
2021/03/15 08:13:04;;;;;;;2.47;1.73;;;;;;;;;;4981030;28;20789;-66
2021/03/15 08:15:34;;;;;;;7.50;1.98;;;;;;;;;;4987947;28;20054;-66
2021/03/15 08:18:03;;;;;;;5.28;1.60;;;;;;;;;;4989341;28;20081;-66
2021/03/15 08:20:31;;;;;;;3.10;1.75;;;;;;;;;;4994767;28;20134;-66
2021/03/15 08:23:00;;;;;;;6.15;1.70;;;;;;;;;;4993752;28;20108;-66
2021/03/15 08:25:28;;;;;;;2.35;1.30;;;;;;;;;;4988286;28;20069;-66
2021/03/15 08:27:58;;;;;;;4.00;1.52;;;;;;;;;;4975167;28;20050;-65
2021/03/15 08:30:28;;;;;;;5.50;1.80;;;;;;;;;;4988707;28;20043;-65
2021/03/15 08:32:57;;;;;;;4.85;1.73;;;;;;;;;;4989284;28;20047;-66
2021/03/15 08:35:25;;;;;;;2.92;1.58;;;;;;;;;;4988535;28;20046;-66
2021/03/15 08:38:02;;;;;;;4.43;2.50;;;;;;;;;;4988790;28;20058;-66
2021/03/15 08:40:48;;;;;;;5.05;1.90;;;;;;;;;;4981691;28;20058;-66
2021/03/15 08:43:36;;;;;;;4.80;1.85;;;;;;;;;;4986685;28;20063;-66
2021/03/15 08:46:04;;;;;;;4.68;2.22;;;;;;;;;;4987705;28;20128;-66
2021/03/15 08:48:50;;;;;;;3.67;2.08;;;;;;;;;;4987898;28;20125;-66
2021/03/15 08:51:33;;;;;;;3.97;2.17;;;;;;;;;;4990029;28;20430;-66
2021/03/15 08:54:06;;;;;;;2.88;1.92;;;;;;;;;;4992276;28;20521;-66
2021/03/15 08:56:35;;;;;;;3.97;1.83;;;;;;;;;;4984206;28;20065;-66
2021/03/15 08:59:03;;;;;;;3.88;2.25;;;;;;;;;;4992033;28;20057;-66
2021/03/15 09:01:46;;;;;;;4.65;1.90;;;;;;;;;;4993111;28;20050;-66
2021/03/15 09:04:28;;;;;;;4.60;1.70;;;;;;;;;;4991588;28;20050;-66
2021/03/15 09:06:56;;;;;;;2.30;1.80;;;;;;;;;;4992819;28;20050;-66
2021/03/15 09:09:28;;;;;;;5.38;1.77;;;;;;;;;;4993205;28;20506;-66
2021/03/15 09:11:57;;;;;;;4.57;1.95;;;;;;;;;;4993610;28;20445;-64
2021/03/15 09:14:33;;;;;;;2.80;1.42;;;;;;;;;;4984936;28;20089;-64
2021/03/15 09:17:02;;;;;;;4.32;1.70;;;;;;;;;;4992779;28;20054;-64
2021/03/15 09:19:33;;;;;;;3.13;1.50;;;;;;;;;;4989109;28;20513;-64
2021/03/15 09:22:01;;;;;;;2.60;1.58;;;;;;;;;;4990647;28;20039;-64
2021/03/15 09:24:53;;;;;;;3.40;1.65;;;;;;;;;;4982533;28;20043;-64
2021/03/15 09:27:28;;;;;;;2.03;1.27;;;;;;;;;;4988570;28;20058;-65
2021/03/15 09:29:57;;;;;;;1.52;1.40;;;;;;;;;;4992119;28;20053;-64
2021/03/15 09:32:32;;;;;;;2.33;1.50;;;;;;;;;;4992137;28;20765;-64
2021/03/15 09:35:02;;;;;;;1.77;1.40;;;;;;;;;;4989859;28;20061;-64
2021/03/15 09:37:30;;;;;;;3.22;1.83;;;;;;;;;;4976346;28;20042;-64
2021/03/15 09:39:58;;;;;;;2.90;1.30;;;;;;;;;;4992248;28;20073;-64
2021/03/15 09:42:28;;;;;;;1.85;1.15;;;;;;;;;;4988024;28;20050;-64
2021/03/15 09:44:56;;;;;;;2.95;0.95;;;;;;;;;;4991387;28;20058;-64
2021/03/15 09:47:26;;;;;;;5.28;2.42;;;;;;;;;;4992228;28;20259;-64
2021/03/15 09:49:54;;;;;;;3.35;1.30;;;;;;;;;;4990879;28;20050;-64
2021/03/15 09:52:23;;;;;;;2.15;1.17;;;;;;;;;;4990893;28;20422;-64
2021/03/15 09:54:52;;;;;;;4.00;1.10;;;;;;;;;;4992672;28;20054;-65
2021/03/15 09:57:21;;;;;;;1.83;1.10;;;;;;;;;;4986594;28;20062;-64
2021/03/15 10:00:07;;;;;;;2.08;0.95;;;;;;;;;;4973636;28;20050;-64
2021/03/15 10:02:36;;;;;;;3.35;1.10;;;;;;;;;;4990131;28;20077;-64
2021/03/15 10:05:09;;;;;;;1.45;1.00;;;;;;;;;;4991826;28;20509;-64
2021/03/15 10:07:43;;;;;;;1.25;1.10;;;;;;;;;;4991420;28;20125;-65
2021/03/15 10:10:12;;;;;;;1.48;1.00;;;;;;;;;;4991380;28;20126;-64
2021/03/15 10:12:40;;;;;;;1.23;0.82;;;;;;;;;;4991342;28;20659;-66
2021/03/15 10:15:10;;;;;;;2.20;1.20;;;;;;;;;;4977955;28;20462;-65
2021/03/15 10:17:38;;;;;;;2.97;1.10;;;;;;;;;;4991449;28;20186;-65
2021/03/15 10:20:27;;;;;;;2.58;1.85;;;;;;;;;;4991733;28;20050;-65
2021/03/15 10:22:55;;;;;;;4.57;1.40;;;;;;;;;;4990915;28;20046;-65
2021/03/15 10:25:23;;;;;;;1.80;0.80;;;;;;;;;;4990581;28;20046;-65
2021/03/15 10:27:55;;;;;;;2.28;0.90;;;;;;;;;;4990380;28;20061;-65
2021/03/15 10:30:28;;;;;;;1.60;1.10;;;;;;;;;;4990711;28;20460;-65
2021/03/15 10:32:57;;;;;;;1.10;0.98;;;;;;;;;;4990021;28;20085;-65
2021/03/15 10:35:25;;;;;;;1.42;0.90;;;;;;;;;;4976264;28;20065;-65
2021/03/15 10:37:54;;;;;;;1.83;1.10;;;;;;;;;;4989706;28;20138;-65
2021/03/15 10:40:23;;;;;;;3.28;0.90;;;;;;;;;;4990491;28;20046;-65
2021/03/15 10:42:52;;;;;;;2.15;0.73;;;;;;;;;;4990976;28;20076;-65
2021/03/15 10:45:22;;;;;;;1.67;0.90;;;;;;;;;;4990690;28;20081;-65
2021/03/15 10:47:51;;;;;;;2.25;1.00;;;;;;;;;;4990727;28;20062;-65
2021/03/15 10:50:25;;;;;;;1.27;1.00;;;;;;;;;;4991500;28;20054;-66
2021/03/15 10:52:53;;;;;;;1.63;0.90;;;;;;;;;;4991455;28;20089;-66
2021/03/15 10:55:22;;;;;;;2.42;1.10;;;;;;;;;;4991005;28;20141;-65
2021/03/15 10:58:06;;;;;;;1.83;1.10;;;;;;;;;;4990308;28;20062;-65
2021/03/15 11:00:34;;;;;;;5.30;1.05;;;;;;;;;;4983461;28;20058;-65
2021/03/15 11:03:03;;;;;;;1.58;1.48;;;;;;;;;;4985717;28;20475;-65
2021/03/15 11:05:31;;;;;;;1.08;0.70;;;;;;;;;;4994830;28;20078;-65
2021/03/15 11:07:59;;;;;;;2.72;0.80;;;;;;;;;;4990448;28;20459;-65
2021/03/15 11:10:29;;;;;;;0.73;0.60;;;;;;;;;;4990181;28;20058;-66
2021/03/15 11:12:58;;;;;;;1.55;0.68;;;;;;;;;;4989295;28;20057;-66
2021/03/15 11:15:33;;;;;;;1.17;0.88;;;;;;;;;;4989393;28;20513;-65
2021/03/15 11:18:09;;;;;;;2.22;0.80;;;;;;;;;;4990785;28;20489;-65
2021/03/15 11:20:45;;;;;;;3.15;0.70;;;;;;;;;;4991094;28;20049;-65
2021/03/15 11:23:13;;;;;;;1.50;0.60;;;;;;;;;;4975040;28;20141;-65
2021/03/15 11:25:40;;;;;;;1.77;0.73;;;;;;;;;;4989301;28;20054;-65
2021/03/15 11:28:09;;;;;;;1.20;0.55;;;;;;;;;;4990202;28;20133;-65
2021/03/15 11:30:37;;;;;;;0.60;0.50;;;;;;;;;;4985187;28;20550;-65
2021/03/15 11:33:07;;;;;;;0.50;0.50;;;;;;;;;;4988135;28;20538;-65
2021/03/15 11:35:36;;;;;;;0.85;0.63;;;;;;;;;;4989817;28;20137;-64
2021/03/15 11:38:04;;;;;;;2.95;1.00;;;;;;;;;;4990272;28;20104;-65
2021/03/15 11:40:33;;;;;;;2.53;0.77;;;;;;;;;;4985205;28;20053;-64
2021/03/15 11:43:01;;;;;;;4.65;0.73;;;;;;;;;;4992812;28;20474;-65
2021/03/15 11:45:29;;;;;;;0.82;0.60;;;;;;;;;;4989959;28;20108;-65
2021/03/15 11:47:57;;;;;;;2.75;0.70;;;;;;;;;;4985099;28;20054;-65
2021/03/15 11:50:28;;;;;;;1.02;0.65;;;;;;;;;;4989571;28;20417;-65
2021/03/15 11:52:57;;;;;;;1.45;0.60;;;;;;;;;;4990513;28;20106;-65
2021/03/15 11:55:25;;;;;;;0.90;0.63;;;;;;;;;;4983399;28;20058;-66
2021/03/15 11:57:52;;;;;;;1.17;0.75;;;;;;;;;;4989622;28;20074;-66
2021/03/15 12:00:21;;;;;;;2.58;1.20;;;;;;;;;;4989988;28;20104;-65
2021/03/15 12:02:49;;;;;;;3.80;0.98;;;;;;;;;;4985180;28;20042;-66
2021/03/15 12:05:18;;;;;;;3.28;1.10;;;;;;;;;;4982906;28;20551;-66
2021/03/15 12:07:45;;;;;;;1.98;1.00;;;;;;;;;;4983673;28;20051;-66
2021/03/15 12:10:15;;;;;;;3.30;1.02;;;;;;;;;;4987144;28;20054;-65
2021/03/15 12:12:43;;;;;;;0.80;0.80;;;;;;;;;;4986579;28;20556;-65
2021/03/15 12:15:30;;;;;;;2.03;1.20;;;;;;;;;;4981281;28;20492;-65
2021/03/15 12:18:04;;;;;;;3.15;1.40;;;;;;;;;;4986291;28;20050;-65
2021/03/15 12:20:32;;;;;;;1.30;0.90;;;;;;;;;;4986944;28;20132;-65
2021/03/15 12:23:00;;;;;;;1.30;1.00;;;;;;;;;;4986011;28;20046;-65
2021/03/15 12:25:32;;;;;;;1.52;1.00;;;;;;;;;;4981045;28;20394;-65
2021/03/15 12:28:00;;;;;;;2.33;1.20;;;;;;;;;;4980065;28;20050;-64
2021/03/15 12:30:27;;;;;;;1.90;1.00;;;;;;;;;;4985771;28;20050;-65
2021/03/15 12:32:55;;;;;;;2.05;1.15;;;;;;;;;;4986396;28;20058;-65
2021/03/15 12:35:23;;;;;;;4.10;1.15;;;;;;;;;;4982269;28;20050;-64
2021/03/15 12:37:52;;;;;;;2.33;1.20;;;;;;;;;;4988509;28;20051;-64
2021/03/15 12:40:20;;;;;;;4.43;1.58;;;;;;;;;;4983382;28;20053;-65
2021/03/15 12:42:49;;;;;;;1.77;1.20;;;;;;;;;;4987975;28;20108;-65
2021/03/15 12:45:18;;;;;;;4.80;1.30;;;;;;;;;;4983845;28;20078;-65
2021/03/15 12:47:50;;;;;;;3.50;1.20;;;;;;;;;;4986847;28;20519;-64
2021/03/15 12:50:19;;;;;;;2.97;1.20;;;;;;;;;;4988225;28;20052;-64
2021/03/15 12:52:46;;;;;;;1.33;0.65;;;;;;;;;;4988632;28;20052;-64
2021/03/15 12:55:14;;;;;;;2.22;1.05;;;;;;;;;;4987653;28;20471;-64
2021/03/15 12:57:43;;;;;;;2.03;1.52;;;;;;;;;;4987561;28;20152;-64
2021/03/15 13:00:13;;;;;;;3.05;1.40;;;;;;;;;;4983721;28;20053;-65
2021/03/15 13:02:41;;;;;;;2.90;1.10;;;;;;;;;;4986773;28;20066;-64
2021/03/15 13:05:09;;;;;;;1.98;1.02;;;;;;;;;;4988598;28;20122;-65
2021/03/15 13:07:36;;;;;;;2.67;1.15;;;;;;;;;;4987505;28;20557;-64
2021/03/15 13:10:05;;;;;;;4.40;1.75;;;;;;;;;;4988411;28;20082;-64
2021/03/15 13:12:32;;;;;;;1.73;1.17;;;;;;;;;;4984719;28;20051;-64
2021/03/15 13:15:00;;;;;;;2.67;1.13;;;;;;;;;;4989027;28;20054;-64
2021/03/15 13:17:29;;;;;;;5.18;1.55;;;;;;;;;;4988337;28;20057;-64
2021/03/15 13:19:57;;;;;;;3.72;2.13;;;;;;;;;;4988903;28;20495;-64
2021/03/15 13:22:25;;;;;;;1.77;1.30;;;;;;;;;;4988932;28;20047;-64
2021/03/15 13:24:52;;;;;;;2.67;1.33;;;;;;;;;;4988094;28;20138;-64
2021/03/15 13:27:20;;;;;;;3.88;2.05;;;;;;;;;;4982632;28;20046;-65
2021/03/15 13:29:48;;;;;;;2.65;1.38;;;;;;;;;;4990165;28;20109;-64
2021/03/15 13:32:17;;;;;;;2.20;1.77;;;;;;;;;;4987812;28;20138;-65
2021/03/15 13:34:50;;;;;;;4.40;1.67;;;;;;;;;;4988460;28;20078;-65
2021/03/15 13:37:18;;;;;;;2.85;2.13;;;;;;;;;;4988450;28;20061;-64
2021/03/15 13:39:46;;;;;;;4.28;1.92;;;;;;;;;;4989801;28;20074;-64
2021/03/15 13:42:16;;;;;;;3.25;1.60;;;;;;;;;;4989800;28;20481;-64
2021/03/15 13:44:44;;;;;;;3.83;1.80;;;;;;;;;;4990990;28;20057;-64
2021/03/15 13:47:12;;;;;;;9.65;1.67;;;;;;;;;;4990791;28;20414;-64
2021/03/15 13:49:41;;;;;;;5.22;1.40;;;;;;;;;;4991417;28;20054;-64
2021/03/15 13:52:10;;;;;;;5.47;1.83;;;;;;;;;;4992054;28;20053;-64
2021/03/15 13:54:38;;;;;;;2.90;1.58;;;;;;;;;;4987259;28;20070;-65
2021/03/15 13:57:06;;;;;;;3.92;1.50;;;;;;;;;;4985490;28;20053;-64
2021/03/15 13:59:34;;;;;;;2.03;1.48;;;;;;;;;;4990408;28;20178;-64
2021/03/15 14:02:02;;;;;;;2.05;1.20;;;;;;;;;;4991965;28;20046;-64
2021/03/15 14:04:49;;;;;;;2.93;1.20;;;;;;;;;;2272715;28;10023574;-64
2021/03/15 14:07:18;;;;;;;2.10;1.45;;;;;;;;;;3571773;29;10001099;-64
2021/03/15 14:09:46;;;;;;;1.17;1.08;;;;;;;;;;4972631;28;20443;-64
2021/03/15 14:12:14;;;;;;;3.10;1.20;;;;;;;;;;4972429;28;20057;-64
2021/03/15 14:14:42;;;;;;;1.80;0.80;;;;;;;;;;4974567;28;20067;-64
2021/03/15 14:17:18;;;;;;;1.73;1.10;;;;;;;;;;4967976;28;20050;-65
2021/03/15 14:19:46;;;;;;;2.13;1.60;;;;;;;;;;4968699;28;20430;-65
2021/03/15 14:22:15;;;;;;;2.72;0.90;;;;;;;;;;4971157;28;20430;-64
2021/03/15 14:24:44;;;;;;;1.75;0.90;;;;;;;;;;4972800;28;20054;-64
2021/03/15 14:27:12;;;;;;;1.77;0.82;;;;;;;;;;4963484;28;20137;-64
2021/03/15 14:29:40;;;;;;;1.48;1.20;;;;;;;;;;4971198;28;20129;-65
2021/03/15 14:32:08;;;;;;;1.70;1.17;;;;;;;;;;4971441;28;20038;-65
2021/03/15 14:34:36;;;;;;;3.25;1.10;;;;;;;;;;4972502;28;20061;-64
2021/03/15 14:37:04;;;;;;;5.05;1.17;;;;;;;;;;4970770;28;20058;-64
2021/03/15 14:39:32;;;;;;;3.17;1.10;;;;;;;;;;4970940;28;20434;-64
2021/03/15 14:42:01;;;;;;;3.15;1.15;;;;;;;;;;4960690;28;20502;-64
2021/03/15 14:44:29;;;;;;;3.10;1.33;;;;;;;;;;4970178;28;20133;-64
2021/03/15 14:46:57;;;;;;;5.80;1.50;;;;;;;;;;4970754;28;20557;-65
2021/03/15 14:49:27;;;;;;;3.65;1.50;;;;;;;;;;4967869;28;20081;-65
2021/03/15 14:51:54;;;;;;;2.63;1.70;;;;;;;;;;4967963;28;20138;-64
2021/03/15 14:54:22;;;;;;;2.17;1.10;;;;;;;;;;4967200;28;20055;-64
2021/03/15 14:56:50;;;;;;;3.88;1.60;;;;;;;;;;4967492;28;20055;-65
2021/03/15 14:59:19;;;;;;;2.15;1.40;;;;;;;;;;4967995;28;20455;-69